createdAt,value
2022-12-08T00:03:02.862Z,100240.00
2022-12-08T00:13:02.724Z,100229.00
2022-12-08T00:23:03.867Z,100221.00
2022-12-08T00:33:03.829Z,100213.00
2022-12-08T00:43:03.769Z,100203.00
2022-12-08T00:53:03.811Z,100191.00
2022-12-08T01:03:03.993Z,100182.00
2022-12-08T01:13:03.935Z,100178.00
2022-12-08T01:23:03.812Z,100174.00
2022-12-08T01:33:03.865Z,100172.00
2022-12-08T01:43:03.838Z,100176.00
2022-12-08T01:53:04.013Z,100168.00
2022-12-08T02:03:03.990Z,100164.00
2022-12-08T02:13:03.905Z,100154.00
2022-12-08T02:23:03.889Z,100148.00
2022-12-08T02:33:04.002Z,100137.00
2022-12-08T02:43:03.904Z,100123.00
2022-12-08T03:03:04.134Z,100101.00
2022-12-08T03:13:03.933Z,100089.00
2022-12-08T03:23:03.967Z,100078.00
2022-12-08T03:33:04.124Z,100070.00
2022-12-08T03:43:03.980Z,100060.00
2022-12-08T03:53:04.000Z,100048.00
2022-12-08T04:03:05.952Z,100038.00
2022-12-08T04:13:06.089Z,100020.00
2022-12-08T04:23:06.075Z,100010.00
2022-12-08T04:33:06.122Z,99999.00
2022-12-08T04:43:06.076Z,99987.00
2022-12-08T04:53:06.087Z,99987.00
2022-12-08T05:03:06.188Z,99977.00
2022-12-08T05:13:06.089Z,99975.00
2022-12-08T05:23:06.104Z,99971.00
2022-12-08T05:33:06.192Z,99971.00
2022-12-08T05:43:06.119Z,99963.00
2022-12-08T05:53:06.162Z,99958.00
2022-12-08T06:03:06.380Z,99952.00
2022-12-08T06:13:06.182Z,99946.00
2022-12-08T06:23:09.380Z,99942.00
2022-12-08T06:33:09.433Z,99940.00
2022-12-08T06:43:09.503Z,99942.00
2022-12-08T06:53:09.222Z,99946.00
2022-12-08T07:03:09.268Z,99942.00
2022-12-08T07:13:09.294Z,99948.00
2022-12-08T07:23:09.243Z,99956.00
2022-12-08T07:33:09.305Z,99961.00
2022-12-08T07:43:09.274Z,99959.00
2022-12-08T07:53:09.442Z,99959.00
2022-12-08T08:03:09.430Z,99961.00
2022-12-08T08:13:09.297Z,99961.00
2022-12-08T08:23:09.338Z,99959.00
2022-12-08T08:33:09.468Z,99963.00
2022-12-08T08:43:09.421Z,99969.00
2022-12-08T08:53:09.371Z,99969.00
2022-12-08T09:03:09.401Z,99967.00
2022-12-08T09:13:09.357Z,99969.00
2022-12-08T09:23:09.368Z,99963.00
2022-12-08T09:33:28.809Z,99967.00
2022-12-08T09:43:29.398Z,99967.00
2022-12-08T09:53:35.221Z,99967.00
2022-12-08T10:03:34.501Z,99963.00
2022-12-08T10:13:34.430Z,99958.00
2022-12-08T10:23:34.481Z,99954.00
2022-12-08T10:33:37.492Z,99950.00
2022-12-08T10:43:37.522Z,99944.00
2022-12-08T10:53:37.493Z,99936.00
2022-12-08T11:03:37.518Z,99926.00
2022-12-08T11:13:37.670Z,99920.00
2022-12-08T11:23:37.534Z,99909.00
2022-12-08T11:33:37.807Z,99901.00
2022-12-08T11:43:37.525Z,99893.00
2022-12-08T11:53:37.569Z,99887.00
2022-12-08T12:03:37.689Z,99885.00
2022-12-08T12:13:37.696Z,99879.00
2022-12-08T12:23:37.584Z,99873.00
2022-12-08T12:33:37.704Z,99867.00
2022-12-08T12:43:37.607Z,99864.00
2022-12-08T12:53:37.619Z,99858.00
2022-12-08T13:03:37.671Z,99852.00
2022-12-08T13:13:38.043Z,99846.00
2022-12-08T13:23:38.666Z,99842.00
2022-12-08T13:33:38.713Z,99836.00
2022-12-08T13:43:51.090Z,99830.00
2022-12-08T14:03:58.234Z,99820.00
2022-12-08T14:13:44.722Z,99818.00
2022-12-08T14:23:44.773Z,99820.00
2022-12-08T14:33:44.815Z,99824.00
2022-12-08T14:43:44.774Z,99822.00
2022-12-08T14:53:45.965Z,99822.00
2022-12-08T15:03:50.721Z,99822.00
2022-12-08T15:13:47.853Z,99826.00
2022-12-08T15:23:47.890Z,99830.00
2022-12-08T15:33:47.865Z,99824.00
2022-12-08T15:43:49.336Z,99826.00
2022-12-08T15:53:50.545Z,99824.00
2022-12-08T16:14:04.236Z,99822.00
2022-12-08T16:23:55.982Z,99826.00
2022-12-08T16:33:56.263Z,99826.00
2022-12-08T16:43:56.973Z,99826.00
2022-12-08T16:53:57.835Z,99824.00
2022-12-08T17:14:01.168Z,99822.00
2022-12-08T17:24:01.103Z,99822.00
2022-12-08T17:34:01.028Z,99822.00
2022-12-08T17:44:01.109Z,99830.00
2022-12-08T17:54:05.117Z,99826.00
2022-12-08T18:04:05.033Z,99824.00
2022-12-08T18:14:06.927Z,99822.00
2022-12-08T18:24:07.038Z,99820.00
2022-12-08T18:34:07.072Z,99820.00
2022-12-08T18:44:07.056Z,99822.00
2022-12-08T18:54:07.027Z,99822.00
2022-12-08T19:14:07.361Z,99828.00
2022-12-08T19:24:06.357Z,99828.00
2022-12-08T19:34:06.284Z,99828.00
2022-12-08T19:44:24.291Z,99828.00
2022-12-08T19:54:24.113Z,99830.00
2022-12-08T20:04:24.176Z,99832.00
2022-12-08T20:14:24.820Z,99832.00
2022-12-08T20:24:25.143Z,99834.00
2022-12-08T20:34:25.222Z,99834.00
2022-12-08T20:44:25.267Z,99836.00
2022-12-08T20:54:25.200Z,99840.00
2022-12-08T21:04:25.465Z,99842.00
2022-12-08T21:14:26.387Z,99844.00
2022-12-08T21:24:32.003Z,99844.00
2022-12-08T21:34:31.126Z,99844.00
2022-12-08T21:44:33.238Z,99842.00
2022-12-08T21:54:33.415Z,99844.00
2022-12-08T22:04:33.650Z,99842.00
2022-12-08T22:14:34.304Z,99842.00
2022-12-08T22:24:34.419Z,99846.00
2022-12-08T22:34:34.409Z,99850.00
2022-12-08T22:44:34.512Z,99848.00
2022-12-08T22:54:34.614Z,99838.00
2022-12-08T23:04:34.796Z,99834.00
2022-12-08T23:14:35.424Z,99834.00
2022-12-08T23:24:38.539Z,99836.00
2022-12-08T23:34:38.485Z,99830.00
2022-12-08T23:44:38.539Z,99830.00
2022-12-08T23:54:38.396Z,99826.00
